Flight Track Log - Related Links

Times and Time Zones

All times are in EDT time to prevent confusion due to time zone crossing. See the GJS6206 flight status page for this flight to view local times or setup timezone preferences in your user account.

Time Position Orientation Groundspeed Altitude Reporting Facility
EDT Latitude Longitude Course Direction KTS MPH feet Rate Location/Type
08:07PM 42.2100 -83.3531 178° South 144 166 1,300  Level Cleveland Center
08:07PM 42.1997 -83.3525 178° South 140 161 2,400 2,595 Climbing FAA TRACON SMA TRACON (SMA)
08:07PM 42.1864 -83.3539 184° South 168 193 2,900 1,814 Climbing FAA TRACON SMA TRACON (SMA)
08:08PM 42.1647 -83.3561 184° South 201 231 3,700 1,953 Climbing FAA TRACON SMA TRACON (SMA)
08:08PM 42.1464 -83.3583 185° South 219 252 4,300 1,784 Climbing FAA TRACON SMA TRACON (SMA)
08:08PM 42.1267 -83.3606 185° South 235 270 4,800 2,757 Climbing FAA TRACON SMA TRACON (SMA)
08:09PM 42.1053 -83.3619 183° South 236 272 6,000 3,150 Climbing FAA TRACON SMA TRACON (SMA)
08:09PM 42.0856 -83.3633 183° South 228 262 6,900 3,150 Climbing FAA TRACON SMA TRACON (SMA)
08:09PM 42.0611 -83.3675 187° South 230 265 8,100 3,150 Climbing FAA TRACON SMA TRACON (SMA)
08:10PM 42.0414 -83.3714 188° South 232 267 9,000 2,400 Climbing FAA TRACON SMA TRACON (SMA)
08:10PM 42.0225 -83.3825 204° Southwest 244 281 9,700 1,500 Climbing FAA TRACON SMA TRACON (SMA)
08:10PM 41.9975 -83.3967 203° Southwest 262 302 10,000 600 Climbing FAA TRACON SMA TRACON (SMA)
08:11PM 41.9758 -83.4083 202° Southwest 279 321 10,100 750 Climbing FAA TRACON SMA TRACON (SMA)
08:11PM 41.9533 -83.4206 202° Southwest 286 329 10,500 1,500 Climbing FAA TRACON SMA TRACON (SMA)
08:11PM 41.9256 -83.4361 203° Southwest 284 327 11,100 1,800 Climbing FAA TRACON SMA TRACON (SMA)
08:12PM 41.9031 -83.4486 202° Southwest 285 328 11,700 1,950 Climbing FAA TRACON SMA TRACON (SMA)
08:12PM 41.8808 -83.4608 202° Southwest 283 326 12,400 2,400 Climbing FAA TRACON SMA TRACON (SMA)
08:12PM 41.8533 -83.4761 202° Southwest 282 325 13,300 2,400 Climbing FAA TRACON SMA TRACON (SMA)
08:13PM 41.8308 -83.4883 202° Southwest 282 325 14,000 2,400 Climbing FAA TRACON SMA TRACON (SMA)
08:13PM 41.8031 -83.5039 203° Southwest 284 327 14,900 2,250 Climbing FAA TRACON SMA TRACON (SMA)
08:13PM 41.7803 -83.5167 203° Southwest 287 330 15,500 1,950 Climbing FAA TRACON SMA TRACON (SMA)
08:14PM 41.7572 -83.5292 202° Southwest 289 333 16,200 2,250 Climbing FAA TRACON SMA TRACON (SMA)
08:14PM 41.7308 -83.5422 200° South 291 335 17,000 2,250 Climbing FAA TRACON SMA TRACON (SMA)
08:14PM 41.7056 -83.5575 204° Southwest 291 335 17,700 2,400 Climbing FAA TRACON SMA TRACON (SMA)
08:15PM 41.6819 -83.5692 200° South 293 337 18,600 2,550 Climbing FAA TRACON SMA TRACON (SMA)
08:15PM 41.6511 -83.5786 193° South 297 342 19,400 1,950 Climbing FAA TRACON SMA TRACON (SMA)
08:15PM 41.6261 -83.5861 193° South 301 346 19,900 1,500 Climbing FAA TRACON SMA TRACON (SMA)
08:16PM 41.5939 -83.5953 192° South 306 352 20,400 1,171 Climbing FAA TRACON SMA TRACON (SMA)
08:16PM 41.5678 -83.6036 193° South 315 362 20,700 878 Climbing FAA TRACON SMA TRACON (SMA)
08:16PM 41.5406 -83.6119 193° South 324 373 21,000 769 Climbing FAA TRACON SMA TRACON (SMA)
08:17PM 41.5133 -83.6183 190° South 339 390 21,200 769 Climbing FAA TRACON SMA TRACON (SMA)
08:17PM 41.4753 -83.6311 194° South 352 405 21,500 750 Climbing FAA TRACON SMA TRACON (SMA)
08:17PM 41.4478 -83.6436 199° South 359 413 21,700 769 Climbing FAA TRACON SMA TRACON (SMA)
08:18PM 41.4119 -83.6656 205° Southwest 363 418 22,000 769 Climbing FAA TRACON SMA TRACON (SMA)
08:18PM 41.3839 -83.6856 208° Southwest 374 430 22,200 439 Climbing FAA TRACON SMA TRACON (SMA)
08:18PM 41.3697 -83.6967 210° Southwest 377 434 22,300 600 Climbing FAA TRACON SMA TRACON (SMA)
08:19PM 41.3189 -83.7311 207° Southwest 374 430 22,700 1,395 Climbing Indianapolis Center
08:20PM 41.2097 -83.8100 209° Southwest 379 436 24,300 1,561 Climbing Cleveland Center
08:21PM 41.1128 -83.8764 207° Southwest 382 440 25,900 1,323 Climbing Indianapolis Center
08:22PM 41.0275 -83.9350 207° Southwest 380 437 27,100 1,073 Climbing Indianapolis Center
08:23PM 40.9344 -84.0000 208° Southwest 377 434 28,100 927 Climbing Indianapolis Center
08:24PM 40.8378 -84.1008 218° Southwest 385 443 29,000 780 Climbing Indianapolis Center
08:25PM 40.7822 -84.2236 239° Southwest 389 448 29,700 780 Climbing Indianapolis Center
08:26PM 40.7281 -84.3503 241° Southwest 393 452 30,600 927 Climbing Indianapolis Center
08:27PM 40.6725 -84.4756 240° Southwest 393 452 31,600 1,024 Climbing Indianapolis Center
08:28PM 40.6178 -84.5989 240° Southwest 389 448 32,700 1,073 Climbing Indianapolis Center
08:29PM 40.5647 -84.7181 240° Southwest 376 433 33,800 1,073 Climbing Indianapolis Center
08:30PM 40.5133 -84.8361 240° Southwest 368 423 34,900 1,024 Climbing Indianapolis Center
08:31PM 40.4614 -84.9525 240° Southwest 364 419 35,900 537 Climbing Indianapolis Center
08:32PM 40.4089 -85.0692 239° Southwest 369 425 36,000 49 Climbing Indianapolis Center
08:33PM 40.3569 -85.1869 240° Southwest 371 427 36,000 439 Level Indianapolis Center
08:34PM 40.2936 -85.3253 239° Southwest 374 430 36,900 927 Climbing Indianapolis Center
08:35PM 40.2422 -85.4400 240° Southwest 367 422 37,900 537 Climbing Indianapolis Center
08:36PM 40.1911 -85.5508 239° Southwest 357 411 38,000  Climbing Indianapolis Center
08:37PM 40.1386 -85.6625 238° Southwest 357 411 37,900 -585 Descending Indianapolis Center
08:38PM 40.0903 -85.7708 240° Southwest 348 400 36,800 -1,268 Descending Indianapolis Center
08:39PM 40.0392 -85.8828 239° Southwest 353 406 35,300 -1,463 Descending Indianapolis Center
08:40PM 39.9839 -86.0017 239° Southwest 361 415 33,800 -1,268 Descending Indianapolis Center
08:41PM 39.9333 -86.1128 239° Southwest 357 411 32,700 -1,024 Descending Indianapolis Center
08:42PM 39.8792 -86.2281 239° Southwest 367 422 31,700 -976 Descending Indianapolis Center
08:43PM 39.8253 -86.3425 239° Southwest 369 425 30,700 -829 Descending Indianapolis Center
08:44PM 39.7886 -86.4772 251° West 390 449 30,000 -683 Descending Indianapolis Center
08:45PM 39.7547 -86.6122 252° West 392 451 29,300 -878 Descending Indianapolis Center
08:46PM 39.7222 -86.7450 252° West 387 445 28,200 -634 Descending Indianapolis Center
08:47PM 39.6886 -86.8769 252° West 384 442 28,000 -98 Descending Indianapolis Center
08:49PM 39.6483 -87.0397 252° West 393 452 28,000  Level Indianapolis Center
08:50PM 39.6147 -87.1769 252° West 399 459 28,000  Level Indianapolis Center
08:51PM 39.5806 -87.3117 252° West 393 452 28,000  Level Indianapolis Center
08:52PM 39.5461 -87.4442 251° West 390 449 28,000  Level Indianapolis Center
08:53PM 39.5114 -87.5811 252° West 397 457 28,000  Level Indianapolis Center
08:54PM 39.4769 -87.7186 252° West 402 463 28,000  Level Indianapolis Center
08:55PM 39.4422 -87.8503 251° West 393 452 28,000  Level Indianapolis Center
08:56PM 39.4078 -87.9858 252° West 393 452 28,000  Level Indianapolis Center
08:56PM 39.4011 -88.0139 253° West 394 453 28,000  Level Kansas City Center
08:57PM 39.3653 -88.1511 251° West 397 457 28,000  Level Kansas City Center
08:58PM 39.3325 -88.2806 252° West 386 444 28,000  Level Kansas City Center
08:59PM 39.2917 -88.4289 250° West 368 423 28,000  Level Kansas City Center
09:00PM 39.2575 -88.5536 251° West 367 422 28,000 -816 Level Kansas City Center
09:01PM 39.2278 -88.6631 251° West 365 420 26,300 -1,694 Descending Kansas City Center
09:02PM 39.1958 -88.7789 250° West 351 404 24,500 -1,770 Descending Kansas City Center
09:03PM 39.1647 -88.8911 250° West 339 390 22,700 -1,968 Descending Kansas City Center
09:04PM 39.1306 -89.0219 251° West 327 376 20,400 -1,935 Descending Kansas City Center
09:05PM 39.1003 -89.1339 251° West 308 354 18,700 -1,556 Descending Kansas City Center
09:06PM 39.0836 -89.1578 228° Southwest 296 341 17,600 -1,478 Descending FAA TRACON SMA TRACON (SMA)
09:06PM 39.0744 -89.1956 253° West 289 333 17,000 -1,756 Descending FAA TRACON SMA TRACON (SMA)
09:07PM 39.0672 -89.2261 253° West 289 333 16,400 -1,800 Descending FAA TRACON SMA TRACON (SMA)
09:07PM 39.0597 -89.2564 252° West 288 331 15,800 -1,950 Descending FAA TRACON SMA TRACON (SMA)
09:07PM 39.0514 -89.2944 254° West 286 329 15,100 -1,800 Descending FAA TRACON SMA TRACON (SMA)
09:08PM 39.0444 -89.3236 253° West 281 323 14,600 -1,650 Descending FAA TRACON SMA TRACON (SMA)
09:08PM 39.0381 -89.3542 255° West 284 327 14,000 -1,800 Descending FAA TRACON SMA TRACON (SMA)
09:08PM 39.0281 -89.3922 251° West 288 331 13,400 -1,500 Descending FAA TRACON SMA TRACON (SMA)
09:09PM 39.0203 -89.4217 251° West 287 330 13,000 -1,050 Descending FAA TRACON SMA TRACON (SMA)
09:09PM 39.0139 -89.4519 255° West 284 327 12,700 -1,050 Descending FAA TRACON SMA TRACON (SMA)
09:09PM 39.0053 -89.4883 253° West 277 319 12,300 -1,050 Descending FAA TRACON SMA TRACON (SMA)
09:10PM 39.0008 -89.5175 259° West 271 312 12,000 -1,050 Descending FAA TRACON SMA TRACON (SMA)
09:10PM 38.9972 -89.5464 261° West 268 308 11,600 -1,350 Descending FAA TRACON SMA TRACON (SMA)
09:10PM 38.9947 -89.5747 264° West 265 305 11,100 -1,650 Descending FAA TRACON SMA TRACON (SMA)
09:11PM 38.9925 -89.6106 265° West 261 300 10,500 -1,500 Descending FAA TRACON SMA TRACON (SMA)
09:11PM 38.9900 -89.6381 263° West 256 295 10,100 -1,200 Descending FAA TRACON SMA TRACON (SMA)
09:11PM 38.9883 -89.6653 266° West 250 288 9,700 -1,500 Descending FAA TRACON SMA TRACON (SMA)
09:12PM 38.9850 -89.6983 263° West 242 278 9,100 -1,500 Descending FAA TRACON SMA TRACON (SMA)
09:12PM 38.9783 -89.7233 251° West 242 278 8,700 -1,350 Descending FAA TRACON SMA TRACON (SMA)
09:12PM 38.9703 -89.7483 247° West 244 281 8,200 -1,650 Descending FAA TRACON SMA TRACON (SMA)
09:13PM 38.9583 -89.7783 243° Southwest 246 283 7,600 -1,500 Descending FAA TRACON SMA TRACON (SMA)
09:13PM 38.9494 -89.8033 245° Southwest 248 285 7,200 -1,350 Descending FAA TRACON SMA TRACON (SMA)
09:13PM 38.9400 -89.8278 244° Southwest 250 288 6,700 -1,500 Descending FAA TRACON SMA TRACON (SMA)
09:14PM 38.9272 -89.8575 241° Southwest 246 283 6,200 -1,050 Descending FAA TRACON SMA TRACON (SMA)
09:14PM 38.9183 -89.8814 244° Southwest 243 280 6,000 -900 Descending FAA TRACON SMA TRACON (SMA)
09:14PM 38.9086 -89.9047 242° Southwest 239 275 5,600 -1,050 Descending FAA TRACON SMA TRACON (SMA)
09:15PM 38.8972 -89.9339 243° Southwest 237 273 5,300 -900 Descending FAA TRACON SMA TRACON (SMA)
09:15PM 38.8875 -89.9581 243° Southwest 244 281 5,000 -450 Descending FAA TRACON SMA TRACON (SMA)
09:15PM 38.8783 -89.9811 243° Southwest 241 277 5,000  Level FAA TRACON SMA TRACON (SMA)
09:16PM 38.8664 -90.0094 242° Southwest 234 269 5,000  Level FAA TRACON SMA TRACON (SMA)
09:16PM 38.8581 -90.0306 243° Southwest 224 258 5,000 -150 Level FAA TRACON SMA TRACON (SMA)
09:16PM 38.8506 -90.0503 244° Southwest 204 235 4,900 -300 Descending FAA TRACON SMA TRACON (SMA)
09:17PM 38.8425 -90.0717 244° Southwest 176 203 4,800 -600 Descending FAA TRACON SMA TRACON (SMA)
09:17PM 38.8364 -90.0878 244° Southwest 164 189 4,500 -1,050 Descending FAA TRACON SMA TRACON (SMA)
09:17PM 38.8297 -90.1044 243° Southwest 166 191 4,100 -1,200 Descending FAA TRACON SMA TRACON (SMA)
09:18PM 38.8211 -90.1250 242° Southwest 170 196 3,700 -1,050 Descending FAA TRACON SMA TRACON (SMA)
09:18PM 38.8147 -90.1408 243° Southwest 165 190 3,400 -900 Descending FAA TRACON SMA TRACON (SMA)
09:18PM 38.8089 -90.1564 244° Southwest 159 183 3,100 -900 Descending FAA TRACON SMA TRACON (SMA)
09:19PM 38.8017 -90.1753 244° Southwest 154 177 2,800 -900 Descending FAA TRACON SMA TRACON (SMA)
09:19PM 38.7953 -90.1897 240° Southwest 153 176 2,500 -750 Descending FAA TRACON SMA TRACON (SMA)
09:19PM 38.7897 -90.2042 244° Southwest 148 170 2,300 -750 Descending FAA TRACON SMA TRACON (SMA)
09:20PM 38.7831 -90.2203 242° Southwest 137 158 2,000 -750 Descending FAA TRACON SMA TRACON (SMA)
09:20PM 38.7783 -90.2328 244° Southwest 126 145 1,800 -600 Descending FAA TRACON SMA TRACON (SMA)
09:20PM 38.7733 -90.2447 242° Southwest 123 142 1,600 -750 Descending FAA TRACON SMA TRACON (SMA)
09:21PM 38.7678 -90.2594 244° Southwest 120 138 1,300 -750 Descending FAA TRACON SMA TRACON (SMA)
09:21PM 38.7622 -90.2719 240° Southwest 125 144 1,100 -600 Descending FAA TRACON SMA TRACON (SMA)
09:21PM 38.7572 -90.2844 243° Southwest 129 148 900 -732 Descending FAA TRACON SMA TRACON (SMA)
09:22PM 38.7511 -90.2997 243° Southwest 126 145 600 -600 Descending FAA TRACON SMA TRACON (SMA)
09:22PM 38.7533 -90.3050 298° West 133 153 500 -316 Descending FAA TRACON SMA TRACON (SMA)
09:24PM 38.7487 -90.3700 322° Northwest  Level Estimated

Login

Don't have an account? Register now (free) for customized features, flight alerts, and more!